Time;durP1;ratioP1;P1;durP2;ratioP2;P2;SDS_P1;SDS_P2;PMS_P1;PMS_P2;Temp;Humidity;BMP_temperature;BMP_pressure;BME280_temperature;BME280_humidity;BME280_pressure;Samples;Min_cycle;Max_cycle;Signal;HPM_P1;HPM_P2
2021/09/24 00:00:45;;;;;;;3.58;1.67;;;14.00;99.90;;;;;;4399415;32;20062;-65
2021/09/24 00:03:10;;;;;;;2.60;1.40;;;14.00;99.90;;;;;;4400436;32;20225;-65
2021/09/24 00:05:36;;;;;;;0.40;0.40;;;13.90;99.90;;;;;;4401172;32;20069;-65
2021/09/24 00:08:01;;;;;;;0.43;0.43;;;13.90;99.90;;;;;;4400731;32;20066;-65
2021/09/24 00:10:27;;;;;;;6.97;1.10;;;13.80;99.90;;;;;;4399418;32;20515;-66
2021/09/24 00:12:52;;;;;;;1.33;0.75;;;13.80;99.90;;;;;;4400472;32;20140;-66
2021/09/24 00:15:18;;;;;;;0.88;0.88;;;13.80;99.90;;;;;;4401018;32;20062;-66
2021/09/24 00:17:44;;;;;;;4.55;1.27;;;13.70;99.90;;;;;;4414541;32;20116;-65
2021/09/24 00:20:10;;;;;;;0.68;0.68;;;13.70;99.90;;;;;;4402142;32;20069;-65
2021/09/24 00:22:36;;;;;;;21.05;1.37;;;13.70;99.90;;;;;;4416085;32;20520;-66
2021/09/24 00:25:02;;;;;;;2.25;0.93;;;13.70;99.90;;;;;;4415534;32;20074;-65
2021/09/24 00:27:27;;;;;;;3.95;1.95;;;13.70;99.90;;;;;;4401010;32;20556;-65
2021/09/24 00:29:53;;;;;;;0.45;0.45;;;13.80;99.90;;;;;;4414508;32;20125;-65
2021/09/24 00:32:21;;;;;;;2.30;1.33;;;13.70;99.90;;;;;;4402187;32;20074;-66
2021/09/24 00:34:48;;;;;;;3.60;1.60;;;13.70;99.90;;;;;;4415710;32;20077;-66
2021/09/24 00:37:13;;;;;;;1.70;1.12;;;13.70;99.90;;;;;;4403084;32;20129;-66
2021/09/24 00:39:38;;;;;;;0.30;0.30;;;13.60;99.90;;;;;;4398285;32;20061;-66
2021/09/24 00:42:04;;;;;;;0.20;0.20;;;13.60;99.90;;;;;;4400584;32;20062;-66
2021/09/24 00:44:40;;;;;;;5.37;1.62;;;13.60;99.90;;;;;;4399988;32;20073;-66
2021/09/24 00:47:05;;;;;;;1.87;1.10;;;13.50;99.90;;;;;;4399728;32;20066;-66
2021/09/24 00:49:31;;;;;;;1.08;1.08;;;13.50;99.90;;;;;;4399754;32;20519;-66
2021/09/24 00:51:58;;;;;;;7.45;1.33;;;13.50;99.90;;;;;;4385579;32;20145;-66
2021/09/24 00:54:24;;;;;;;1.50;0.80;;;13.50;99.90;;;;;;4387210;32;20077;-66
2021/09/24 00:56:52;;;;;;;1.05;0.98;;;13.50;99.90;;;;;;4398597;32;20069;-66
2021/09/24 00:59:18;;;;;;;5.62;1.27;;;13.50;99.90;;;;;;4399897;32;20476;-66
2021/09/24 01:01:43;;;;;;;3.70;2.15;;;13.60;99.90;;;;;;4400034;32;20065;-66
2021/09/24 01:04:09;;;;;;;0.52;0.52;;;13.50;99.90;;;;;;4398906;32;20413;-65
2021/09/24 01:06:36;;;;;;;2.45;1.35;;;13.50;99.90;;;;;;4400092;32;20069;-65
2021/09/24 01:09:02;;;;;;;2.03;0.85;;;13.50;99.90;;;;;;4386224;32;20059;-66
2021/09/24 01:11:27;;;;;;;1.62;1.05;;;13.50;99.90;;;;;;4400102;32;20086;-67
2021/09/24 01:13:53;;;;;;;0.62;0.62;;;13.40;99.90;;;;;;4399445;32;20058;-66
2021/09/24 01:16:19;;;;;;;0.70;0.70;;;13.30;99.90;;;;;;4405428;32;20102;-66
2021/09/24 01:18:45;;;;;;;2.35;1.52;;;13.30;99.90;;;;;;4400457;32;20070;-66
2021/09/24 01:21:11;;;;;;;3.85;1.30;;;13.30;99.90;;;;;;4414377;32;20086;-66
2021/09/24 01:23:36;;;;;;;7.68;0.30;;;13.40;99.90;;;;;;4401232;32;20073;-66
2021/09/24 01:26:02;;;;;;;0.40;0.40;;;13.30;99.90;;;;;;4413945;32;20066;-66
2021/09/24 01:28:28;;;;;;;3.03;1.25;;;13.30;99.90;;;;;;4401380;32;20140;-66
2021/09/24 01:30:53;;;;;;;0.70;0.70;;;13.30;99.90;;;;;;4414351;32;20082;-66
2021/09/24 01:33:19;;;;;;;11.15;1.30;;;13.30;99.90;;;;;;4415516;32;20077;-66
2021/09/24 01:35:44;;;;;;;0.40;0.40;;;13.20;99.90;;;;;;4398250;32;20077;-66
2021/09/24 01:38:10;;;;;;;0.55;0.55;;;13.30;99.90;;;;;;4399437;32;20123;-66
2021/09/24 01:40:35;;;;;;;1.30;0.60;;;13.30;99.90;;;;;;4385618;32;20093;-66
2021/09/24 01:43:01;;;;;;;1.77;0.93;;;13.30;99.90;;;;;;4385360;32;20081;-66
2021/09/24 01:45:26;;;;;;;3.50;1.27;;;13.30;99.90;;;;;;4399329;32;20089;-66
2021/09/24 01:47:52;;;;;;;4.65;0.75;;;13.30;99.90;;;;;;4399527;32;20194;-66
2021/09/24 01:50:18;;;;;;;0.55;0.55;;;13.40;99.90;;;;;;4398488;32;20074;-66
2021/09/24 01:52:43;;;;;;;0.85;0.85;;;13.40;99.90;;;;;;4399271;32;20085;-66
2021/09/24 01:55:09;;;;;;;2.53;0.80;;;13.40;99.90;;;;;;4398937;32;20459;-67
2021/09/24 01:57:36;;;;;;;2.80;1.23;;;13.30;99.90;;;;;;4384369;32;20520;-66
2021/09/24 02:00:03;;;;;;;0.50;0.50;;;13.30;99.90;;;;;;4398071;32;20065;-67
2021/09/24 02:02:29;;;;;;;2.35;1.25;;;13.30;99.90;;;;;;4404795;32;20073;-66
2021/09/24 02:04:54;;;;;;;1.20;1.10;;;13.40;99.90;;;;;;4413318;32;20433;-66
2021/09/24 02:07:20;;;;;;;0.47;0.47;;;13.40;99.90;;;;;;4415034;32;20074;-66
2021/09/24 02:09:45;;;;;;;0.43;0.43;;;13.40;99.90;;;;;;4413383;32;20478;-66
2021/09/24 02:12:11;;;;;;;13.32;1.10;;;13.40;99.90;;;;;;4399743;32;20435;-66
2021/09/24 02:14:36;;;;;;;1.37;1.27;;;13.30;99.90;;;;;;4414722;32;20104;-66
2021/09/24 02:17:03;;;;;;;6.72;0.93;;;13.30;99.90;;;;;;4415468;32;20082;-66
2021/09/24 02:19:29;;;;;;;14.05;1.30;;;13.30;99.90;;;;;;4400820;32;20101;-66
2021/09/24 02:21:57;;;;;;;2.58;1.17;;;13.40;99.90;;;;;;4414945;32;20081;-66
2021/09/24 02:24:23;;;;;;;0.68;0.60;;;13.30;99.90;;;;;;4413093;32;20137;-66
2021/09/24 02:26:48;;;;;;;0.68;0.68;;;13.40;99.90;;;;;;4413511;32;20078;-66
2021/09/24 02:29:14;;;;;;;3.80;1.45;;;13.30;99.90;;;;;;4413186;32;20136;-66
2021/09/24 02:31:39;;;;;;;1.05;1.02;;;13.30;99.90;;;;;;4399819;32;20120;-66
2021/09/24 02:34:05;;;;;;;2.30;1.08;;;13.20;99.90;;;;;;4413383;32;20082;-66
2021/09/24 02:36:30;;;;;;;4.82;1.95;;;13.20;99.90;;;;;;4406118;32;20112;-66
2021/09/24 02:38:56;;;;;;;1.30;1.20;;;13.20;99.90;;;;;;4399028;32;20085;-66
2021/09/24 02:41:21;;;;;;;11.68;0.60;;;13.20;99.90;;;;;;4398594;32;20070;-66
2021/09/24 02:43:47;;;;;;;10.00;0.70;;;13.20;99.90;;;;;;4398185;32;20082;-66
2021/09/24 02:46:12;;;;;;;0.55;0.55;;;13.10;99.90;;;;;;4398583;32;20078;-66
2021/09/24 02:48:38;;;;;;;6.80;2.33;;;13.10;99.90;;;;;;4397993;32;20503;-66
2021/09/24 02:51:03;;;;;;;3.22;1.05;;;13.10;99.90;;;;;;4397817;32;20066;-65
2021/09/24 02:53:29;;;;;;;24.65;0.73;;;13.10;99.90;;;;;;4398889;32;20584;-65
2021/09/24 02:55:54;;;;;;;0.40;0.40;;;13.10;99.90;;;;;;4396794;32;20063;-66
2021/09/24 02:58:19;;;;;;;3.17;1.62;;;13.10;99.90;;;;;;4398338;32;20091;-66
2021/09/24 03:00:45;;;;;;;3.70;0.88;;;13.10;99.90;;;;;;4397667;32;20514;-66
2021/09/24 03:03:10;;;;;;;0.75;0.57;;;13.20;99.90;;;;;;4398029;32;20078;-66
2021/09/24 03:05:36;;;;;;;3.65;1.05;;;13.20;99.90;;;;;;4399613;32;20078;-66
2021/09/24 03:08:02;;;;;;;7.93;2.58;;;13.20;99.90;;;;;;4398507;32;20082;-66
2021/09/24 03:10:28;;;;;;;0.85;0.60;;;13.20;99.90;;;;;;4383555;32;20086;-66
2021/09/24 03:12:53;;;;;;;4.03;1.05;;;13.20;99.90;;;;;;4400496;32;20464;-65
2021/09/24 03:15:19;;;;;;;3.45;1.35;;;13.20;99.90;;;;;;4401343;32;20508;-66
2021/09/24 03:17:45;;;;;;;11.30;1.35;;;13.20;99.90;;;;;;4415847;32;20090;-66
2021/09/24 03:20:13;;;;;;;0.80;0.80;;;13.20;99.90;;;;;;4416400;32;20058;-65
2021/09/24 03:22:39;;;;;;;0.37;0.37;;;13.20;99.90;;;;;;4416016;32;20094;-66
2021/09/24 03:25:06;;;;;;;0.40;0.40;;;13.20;99.90;;;;;;4415517;32;20082;-66
2021/09/24 03:27:33;;;;;;;0.60;0.60;;;13.20;99.90;;;;;;4414558;32;20081;-66
2021/09/24 03:29:58;;;;;;;1.87;1.25;;;13.20;99.90;;;;;;4416306;32;20082;-66
2021/09/24 03:32:24;;;;;;;2.50;1.27;;;13.30;99.90;;;;;;4416702;32;20070;-66
2021/09/24 03:34:49;;;;;;;0.43;0.43;;;13.20;99.90;;;;;;4416154;32;20058;-66
2021/09/24 03:37:15;;;;;;;1.45;1.08;;;13.20;99.90;;;;;;4402432;32;20070;-66
2021/09/24 03:39:42;;;;;;;0.93;0.88;;;13.20;99.90;;;;;;4400486;32;20070;-66
2021/09/24 03:42:07;;;;;;;0.68;0.65;;;13.20;99.90;;;;;;4386283;32;20070;-66
2021/09/24 03:44:33;;;;;;;2.67;1.37;;;13.20;99.90;;;;;;4400651;32;20095;-65
2021/09/24 03:46:59;;;;;;;2.37;0.95;;;13.30;99.90;;;;;;4387560;32;20066;-66
2021/09/24 03:49:26;;;;;;;0.82;0.82;;;13.30;99.90;;;;;;4373900;32;20062;-66
2021/09/24 03:51:52;;;;;;;0.90;0.80;;;13.30;99.90;;;;;;4400427;32;20085;-65
2021/09/24 03:54:18;;;;;;;0.37;0.37;;;13.30;99.90;;;;;;4401196;32;20078;-66
2021/09/24 03:56:44;;;;;;;2.30;1.42;;;13.30;99.90;;;;;;4399492;32;20066;-66
2021/09/24 03:59:10;;;;;;;0.60;0.60;;;13.30;99.90;;;;;;4386313;32;20083;-66
2021/09/24 04:01:36;;;;;;;1.12;1.02;;;13.20;99.90;;;;;;4386553;32;20510;-66
2021/09/24 04:04:02;;;;;;;1.37;0.65;;;13.20;99.90;;;;;;4400311;32;20492;-66
2021/09/24 04:06:28;;;;;;;0.95;0.93;;;13.30;99.90;;;;;;4400668;32;20082;-66
2021/09/24 04:08:53;;;;;;;0.50;0.50;;;13.30;99.90;;;;;;4400732;32;20073;-66
2021/09/24 04:11:19;;;;;;;32.90;0.77;;;13.30;99.90;;;;;;4385751;32;20125;-65
2021/09/24 04:13:44;;;;;;;2.50;0.80;;;13.30;99.90;;;;;;4386454;32;20141;-65
2021/09/24 04:16:10;;;;;;;0.25;0.25;;;13.20;99.90;;;;;;4403842;32;20091;-65
2021/09/24 04:18:35;;;;;;;1.35;1.27;;;13.10;99.90;;;;;;4415191;32;20081;-66
2021/09/24 04:21:01;;;;;;;2.08;0.65;;;13.20;99.90;;;;;;4412248;32;20070;-66
2021/09/24 04:23:27;;;;;;;1.87;1.27;;;13.10;99.90;;;;;;4400418;32;20073;-66
2021/09/24 04:25:52;;;;;;;6.87;2.72;;;13.10;99.90;;;;;;4406245;32;20506;-66
2021/09/24 04:28:18;;;;;;;1.23;1.05;;;13.10;99.90;;;;;;4415834;32;20073;-65
2021/09/24 04:30:43;;;;;;;13.57;0.88;;;13.20;99.90;;;;;;4415041;32;20078;-66
2021/09/24 04:33:09;;;;;;;17.55;1.90;;;13.20;99.90;;;;;;4415426;32;20065;-66
2021/09/24 04:35:34;;;;;;;0.77;0.77;;;13.20;99.90;;;;;;4400038;32;20511;-66
2021/09/24 04:38:00;;;;;;;4.87;1.85;;;13.20;99.90;;;;;;4400373;32;20460;-66
2021/09/24 04:40:26;;;;;;;1.70;1.08;;;13.20;99.90;;;;;;4406178;32;20528;-66
2021/09/24 04:42:51;;;;;;;6.05;1.58;;;13.20;99.90;;;;;;4415184;32;20086;-66
2021/09/24 04:45:17;;;;;;;1.87;1.15;;;13.10;99.90;;;;;;4415376;32;20065;-66
2021/09/24 04:47:42;;;;;;;1.45;1.00;;;13.20;99.90;;;;;;4414891;32;20124;-66
2021/09/24 04:50:09;;;;;;;2.37;1.73;;;13.10;99.90;;;;;;4414364;32;20078;-66
2021/09/24 04:52:34;;;;;;;3.12;1.60;;;13.10;99.90;;;;;;4413838;32;20467;-66
2021/09/24 04:55:00;;;;;;;0.73;0.73;;;13.10;99.90;;;;;;4414039;32;20069;-66
2021/09/24 04:57:25;;;;;;;0.50;0.50;;;13.10;99.90;;;;;;4414144;32;20069;-66
2021/09/24 04:59:50;;;;;;;0.45;0.40;;;13.20;99.90;;;;;;4406435;32;20087;-66
2021/09/24 05:02:16;;;;;;;1.20;1.08;;;13.20;99.90;;;;;;4402122;32;20543;-66
2021/09/24 05:04:43;;;;;;;20.83;1.27;;;13.10;99.90;;;;;;4390305;32;20081;-66
2021/09/24 05:07:08;;;;;;;7.50;1.17;;;13.20;99.90;;;;;;4404426;32;20130;-66
2021/09/24 05:09:34;;;;;;;6.87;0.70;;;13.20;99.90;;;;;;4400828;32;20070;-66
2021/09/24 05:12:00;;;;;;;1.67;1.08;;;13.20;99.90;;;;;;4402363;32;20065;-66
2021/09/24 05:14:25;;;;;;;19.70;1.70;;;13.20;99.90;;;;;;4400120;32;20065;-66
2021/09/24 05:16:51;;;;;;;0.40;0.40;;;13.10;99.90;;;;;;4397924;32;20522;-66
2021/09/24 05:19:16;;;;;;;0.55;0.50;;;13.10;99.90;;;;;;4398435;32;20527;-66
2021/09/24 05:21:42;;;;;;;2.67;1.35;;;13.10;99.90;;;;;;4399079;32;20093;-63
2021/09/24 05:24:08;;;;;;;1.10;0.40;;;13.10;99.90;;;;;;4412724;32;20086;-66
2021/09/24 05:26:33;;;;;;;5.05;1.17;;;13.00;99.90;;;;;;4388926;32;20898;-65
2021/09/24 05:29:00;;;;;;;0.88;0.88;;;13.10;99.90;;;;;;4396233;32;20207;-65
2021/09/24 05:31:25;;;;;;;1.12;1.02;;;13.10;99.90;;;;;;4371004;32;20176;-65
2021/09/24 05:33:52;;;;;;;10.80;1.50;;;13.10;99.90;;;;;;4392873;32;21267;-65
2021/09/24 05:36:18;;;;;;;16.75;1.12;;;13.00;99.90;;;;;;4385961;32;20657;-65
2021/09/24 05:38:44;;;;;;;0.40;0.40;;;13.00;99.90;;;;;;4398791;32;20617;-65
2021/09/24 05:41:10;;;;;;;1.87;0.90;;;13.00;99.90;;;;;;4406247;32;20081;-65
2021/09/24 05:43:36;;;;;;;1.02;0.95;;;13.00;99.90;;;;;;4400023;32;20310;-65
2021/09/24 05:46:02;;;;;;;3.50;0.88;;;13.00;99.90;;;;;;4402149;32;20593;-65
2021/09/24 05:48:28;;;;;;;4.72;1.77;;;13.10;99.90;;;;;;4407320;32;20074;-65
2021/09/24 05:50:55;;;;;;;3.97;0.45;;;13.10;99.90;;;;;;4407517;32;20489;-65
2021/09/24 05:53:20;;;;;;;0.60;0.60;;;13.10;99.90;;;;;;4394874;32;20098;-64
2021/09/24 05:55:46;;;;;;;2.25;1.10;;;13.10;99.90;;;;;;4392483;32;20097;-64
2021/09/24 05:58:11;;;;;;;3.10;1.85;;;13.00;99.90;;;;;;4392564;32;20783;-64
2021/09/24 06:00:37;;;;;;;1.42;0.90;;;12.90;99.90;;;;;;4388117;32;20085;-64
2021/09/24 06:03:03;;;;;;;2.50;0.77;;;12.90;99.90;;;;;;4395862;32;20085;-64
2021/09/24 06:05:28;;;;;;;3.78;0.52;;;13.00;99.90;;;;;;4396200;32;20066;-64
2021/09/24 06:07:54;;;;;;;7.45;2.00;;;13.00;99.90;;;;;;4401158;32;20479;-64
2021/09/24 06:10:19;;;;;;;1.02;1.00;;;13.00;99.90;;;;;;4398271;32;20418;-64
2021/09/24 06:12:48;;;;;;;5.22;1.15;;;13.00;99.90;;;;;;4402119;32;20074;-64
2021/09/24 06:15:15;;;;;;;0.52;0.52;;;13.00;99.90;;;;;;4401250;32;20416;-64
2021/09/24 06:17:40;;;;;;;3.30;0.45;;;12.90;99.90;;;;;;4406400;32;20133;-64
2021/09/24 06:20:06;;;;;;;3.15;1.08;;;12.90;99.90;;;;;;4396392;32;20105;-64
2021/09/24 06:22:32;;;;;;;2.58;1.30;;;12.90;99.90;;;;;;4397106;32;20083;-64
2021/09/24 06:24:58;;;;;;;1.58;0.62;;;12.90;99.90;;;;;;4397087;32;88985;-65
2021/09/24 06:27:23;;;;;;;5.70;1.60;;;12.90;99.90;;;;;;4401290;32;20065;-64
2021/09/24 06:29:54;;;;;;;1.10;0.77;;;12.90;99.90;;;;;;4400656;32;20144;-63
2021/09/24 06:32:21;;;;;;;0.35;0.35;;;12.90;99.90;;;;;;4399713;32;20094;-63
2021/09/24 06:34:47;;;;;;;0.45;0.45;;;12.80;99.90;;;;;;4388137;32;20069;-63
2021/09/24 06:37:14;;;;;;;8.63;1.08;;;12.80;99.90;;;;;;4385317;32;20121;-63
2021/09/24 06:39:39;;;;;;;0.60;0.60;;;12.80;99.90;;;;;;4403847;32;20062;-64
2021/09/24 06:42:06;;;;;;;1.90;1.17;;;12.80;99.90;;;;;;4398059;32;20174;-64
2021/09/24 06:44:32;;;;;;;1.02;0.70;;;12.90;99.90;;;;;;4398563;32;20077;-64
2021/09/24 06:46:57;;;;;;;0.82;0.80;;;12.90;99.90;;;;;;4399792;32;20089;-64
2021/09/24 06:49:24;;;;;;;0.52;0.52;;;12.90;99.90;;;;;;4395244;32;20093;-65
2021/09/24 06:51:52;;;;;;;0.75;0.75;;;13.00;99.90;;;;;;4400366;32;20077;-64
2021/09/24 06:54:18;;;;;;;11.25;1.15;;;13.00;99.90;;;;;;4402694;32;20140;-64
2021/09/24 06:56:44;;;;;;;0.28;0.28;;;13.00;99.90;;;;;;4407523;32;20066;-64
2021/09/24 06:59:10;;;;;;;1.55;1.27;;;13.10;99.90;;;;;;4402006;32;20074;-64
2021/09/24 07:01:35;;;;;;;0.40;0.40;;;13.10;99.90;;;;;;4398163;32;21005;-64
2021/09/24 07:04:01;;;;;;;3.25;1.23;;;13.10;99.90;;;;;;4401205;32;20062;-64
2021/09/24 07:06:27;;;;;;;0.50;0.50;;;13.20;99.90;;;;;;4401900;32;20066;-64
2021/09/24 07:08:52;;;;;;;2.15;1.02;;;13.20;99.90;;;;;;4401160;32;20643;-65
2021/09/24 07:11:18;;;;;;;0.60;0.60;;;13.20;99.90;;;;;;4401590;32;20193;-64
2021/09/24 07:13:43;;;;;;;1.20;1.00;;;13.30;99.90;;;;;;4399012;32;20086;-64
2021/09/24 07:16:09;;;;;;;0.50;0.50;;;13.30;99.90;;;;;;4400720;32;20080;-65
2021/09/24 07:18:35;;;;;;;0.40;0.40;;;13.30;99.90;;;;;;4401298;32;20102;-64
2021/09/24 07:21:00;;;;;;;11.85;1.35;;;13.40;99.90;;;;;;4403602;32;20136;-65
2021/09/24 07:23:26;;;;;;;2.75;1.25;;;13.40;99.90;;;;;;4398107;32;20618;-65
2021/09/24 07:25:52;;;;;;;6.68;1.55;;;13.50;99.90;;;;;;4398392;32;20070;-65
2021/09/24 07:28:18;;;;;;;28.27;1.45;;;13.50;99.90;;;;;;4397689;32;20574;-65
2021/09/24 07:30:43;;;;;;;0.35;0.35;;;13.60;99.90;;;;;;4399663;32;20563;-65
2021/09/24 07:33:09;;;;;;;8.60;2.40;;;13.60;99.90;;;;;;4400989;32;20543;-65
2021/09/24 07:35:35;;;;;;;1.80;1.30;;;13.60;99.90;;;;;;4398113;32;20077;-64
2021/09/24 07:38:01;;;;;;;0.50;0.50;;;13.70;99.90;;;;;;4389274;32;20085;-65
2021/09/24 07:40:27;;;;;;;0.40;0.40;;;13.80;99.90;;;;;;4403820;32;20560;-64
2021/09/24 07:42:53;;;;;;;1.23;0.73;;;13.90;99.90;;;;;;4400555;32;20181;-64
2021/09/24 07:45:20;;;;;;;11.68;1.52;;;13.90;99.90;;;;;;4398480;32;20113;-65
2021/09/24 07:47:46;;;;;;;0.30;0.30;;;14.00;99.90;;;;;;4396863;32;20077;-65
2021/09/24 07:50:12;;;;;;;0.30;0.30;;;13.90;99.90;;;;;;4400184;32;20085;-64
2021/09/24 07:52:37;;;;;;;0.30;0.30;;;14.00;99.90;;;;;;4396996;32;20057;-62
2021/09/24 07:55:03;;;;;;;0.60;0.60;;;14.10;99.90;;;;;;4401654;32;20156;-63
2021/09/24 07:57:29;;;;;;;11.40;0.90;;;14.10;99.90;;;;;;4395658;32;20097;-64
2021/09/24 07:59:55;;;;;;;5.85;1.58;;;14.20;99.90;;;;;;4399510;32;20078;-63
2021/09/24 08:02:21;;;;;;;0.35;0.35;;;14.20;99.90;;;;;;4390059;32;20180;-63
2021/09/24 08:04:47;;;;;;;0.55;0.55;;;14.20;99.90;;;;;;4398411;32;20085;-64
2021/09/24 08:07:13;;;;;;;5.20;0.98;;;14.30;99.90;;;;;;4386378;32;20082;-64
2021/09/24 08:09:38;;;;;;;1.65;1.00;;;14.30;99.90;;;;;;4404872;32;20511;-65
2021/09/24 08:12:04;;;;;;;3.42;1.40;;;14.40;99.90;;;;;;4396626;32;20080;-65
2021/09/24 08:14:30;;;;;;;0.93;0.77;;;14.40;99.90;;;;;;4396069;32;20160;-64
2021/09/24 08:16:55;;;;;;;2.83;1.02;;;14.50;99.90;;;;;;4399335;32;20365;-64
2021/09/24 08:19:20;;;;;;;0.52;0.52;;;14.60;99.90;;;;;;4397220;32;20198;-64
2021/09/24 08:21:46;;;;;;;3.62;1.00;;;14.70;99.90;;;;;;4391483;32;20099;-63
2021/09/24 08:24:11;;;;;;;25.20;1.08;;;14.80;99.90;;;;;;4395228;32;20061;-63
2021/09/24 08:26:37;;;;;;;9.43;0.52;;;14.90;99.90;;;;;;4402691;32;20089;-64
2021/09/24 08:29:02;;;;;;;0.40;0.40;;;14.90;99.90;;;;;;4398790;32;20078;-64
2021/09/24 08:31:29;;;;;;;1.55;1.15;;;15.00;99.90;;;;;;4401137;32;20077;-63
2021/09/24 08:33:57;;;;;;;0.68;0.68;;;15.20;99.90;;;;;;4398136;32;20077;-63
2021/09/24 08:36:23;;;;;;;5.05;2.05;;;15.20;99.90;;;;;;4404179;32;20073;-63
2021/09/24 08:38:48;;;;;;;2.08;1.35;;;15.30;99.90;;;;;;4396517;32;20086;-63
2021/09/24 08:41:14;;;;;;;0.73;0.73;;;15.30;99.90;;;;;;4403677;32;20720;-64
2021/09/24 08:43:40;;;;;;;0.80;0.80;;;15.30;99.90;;;;;;4375515;32;20409;-63
2021/09/24 08:46:06;;;;;;;1.77;1.05;;;15.40;99.90;;;;;;4395734;32;20087;-63
2021/09/24 08:48:34;;;;;;;8.32;2.95;;;15.40;99.90;;;;;;4396405;32;20507;-64
2021/09/24 08:51:00;;;;;;;0.75;0.75;;;15.50;99.90;;;;;;4402763;32;20094;-64
2021/09/24 08:53:26;;;;;;;0.75;0.55;;;15.50;99.90;;;;;;4405514;32;20057;-63
2021/09/24 08:55:52;;;;;;;0.40;0.40;;;15.50;99.90;;;;;;4391606;32;20191;-64
2021/09/24 08:58:18;;;;;;;0.62;0.62;;;15.50;99.90;;;;;;4404891;32;20519;-63
2021/09/24 09:00:44;;;;;;;0.93;0.68;;;15.60;99.90;;;;;;4371922;32;20058;-64
2021/09/24 09:03:14;;;;;;;8.60;1.58;;;15.60;99.90;;;;;;4401643;32;20110;-64
2021/09/24 09:05:42;;;;;;;30.77;2.40;;;15.60;99.90;;;;;;4396810;32;20097;-63
2021/09/24 09:08:12;;;;;;;2.17;0.90;;;15.60;99.90;;;;;;4396892;32;20424;-64
2021/09/24 09:10:42;;;;;;;1.90;0.53;;;15.70;99.90;;;;;;4392945;32;20937;-64
2021/09/24 09:13:10;;;;;;;3.12;1.50;;;15.80;99.90;;;;;;4384807;32;20214;-62
2021/09/24 09:15:37;;;;;;;10.35;1.45;;;15.70;99.90;;;;;;4399691;32;20394;-63
2021/09/24 09:18:03;;;;;;;0.80;0.80;;;15.70;99.90;;;;;;4409050;32;20087;-63
2021/09/24 09:20:31;;;;;;;0.70;0.62;;;15.90;99.90;;;;;;4398040;32;20644;-63
2021/09/24 09:23:03;;;;;;;2.67;1.20;;;16.00;99.90;;;;;;4385172;32;21757;-63
2021/09/24 09:25:33;;;;;;;1.23;1.12;;;16.10;99.90;;;;;;4397187;32;20118;-65
2021/09/24 09:28:04;;;;;;;0.50;0.50;;;16.00;99.90;;;;;;4401328;32;20094;-64
2021/09/24 09:30:31;;;;;;;0.62;0.62;;;16.00;99.90;;;;;;4396629;32;20342;-64
2021/09/24 09:33:02;;;;;;;10.65;0.85;;;16.10;99.90;;;;;;4389815;32;20078;-63
2021/09/24 09:35:33;;;;;;;2.80;1.20;;;16.20;99.90;;;;;;4405443;32;20102;-64
2021/09/24 09:38:00;;;;;;;2.62;1.20;;;16.20;99.90;;;;;;4401974;32;20453;-64
2021/09/24 09:40:27;;;;;;;2.10;1.45;;;16.20;99.90;;;;;;4405117;32;20059;-64
2021/09/24 09:42:57;;;;;;;11.68;1.02;;;16.30;99.90;;;;;;4405211;32;20050;-64
2021/09/24 09:45:23;;;;;;;17.33;1.53;;;16.40;99.90;;;;;;4400873;32;20070;-64
2021/09/24 09:47:49;;;;;;;1.30;1.08;;;16.30;99.90;;;;;;4399949;32;20086;-64
2021/09/24 09:50:20;;;;;;;2.15;1.30;;;16.40;99.90;;;;;;4387475;32;20054;-64
2021/09/24 09:53:07;;;;;;;0.55;0.55;;;16.40;99.90;;;;;;4400240;32;20146;-64
2021/09/24 09:55:36;;;;;;;0.37;0.37;;;16.30;99.90;;;;;;4392273;32;20121;-64
2021/09/24 09:58:06;;;;;;;7.07;1.30;;;16.30;99.90;;;;;;4395219;32;20136;-64
2021/09/24 10:00:33;;;;;;;11.65;2.15;;;16.30;99.90;;;;;;4390138;32;20433;-64
2021/09/24 10:03:04;;;;;;;2.28;0.80;;;16.40;99.90;;;;;;4390083;32;20098;-64
2021/09/24 10:05:36;;;;;;;1.27;1.20;;;16.40;99.90;;;;;;4393711;32;20102;-64
2021/09/24 10:08:18;;;;;;;0.40;0.40;;;16.40;99.90;;;;;;4404472;32;20214;-64
2021/09/24 10:11:06;;;;;;;1.00;0.70;;;16.40;99.90;;;;;;4392321;32;20582;-64
2021/09/24 10:13:35;;;;;;;1.45;0.52;;;16.50;99.90;;;;;;4395818;32;20102;-64
2021/09/24 10:16:01;;;;;;;5.55;0.90;;;16.50;99.90;;;;;;4402279;32;20093;-64
2021/09/24 10:18:27;;;;;;;0.52;0.52;;;16.50;99.90;;;;;;4407415;32;20113;-64
2021/09/24 10:20:53;;;;;;;3.33;0.40;;;16.50;99.90;;;;;;4384554;32;20058;-64
2021/09/24 10:23:19;;;;;;;3.20;1.48;;;16.70;99.90;;;;;;4402709;32;20074;-64
2021/09/24 10:25:49;;;;;;;0.43;0.43;;;16.70;99.90;;;;;;4404772;32;20146;-64
2021/09/24 10:28:15;;;;;;;6.87;2.03;;;16.70;99.90;;;;;;4398707;32;20132;-64
2021/09/24 10:30:41;;;;;;;3.15;1.95;;;16.70;99.90;;;;;;4401475;32;20485;-64
2021/09/24 10:33:11;;;;;;;0.95;0.95;;;16.70;99.90;;;;;;4403134;32;20081;-64
2021/09/24 10:35:54;;;;;;;1.42;0.90;;;16.70;99.90;;;;;;4398447;32;20153;-64
2021/09/24 10:38:21;;;;;;;0.77;0.77;;;16.80;99.90;;;;;;4379376;32;20129;-64
2021/09/24 10:41:05;;;;;;;11.70;1.15;;;16.80;99.90;;;;;;4403917;32;20066;-64
2021/09/24 10:43:49;;;;;;;1.02;0.50;;;16.70;99.90;;;;;;4391128;32;20610;-64
2021/09/24 10:46:33;;;;;;;0.98;0.75;;;16.50;99.90;;;;;;4402760;32;20086;-63
2021/09/24 10:49:19;;;;;;;0.52;0.52;;;16.30;99.90;;;;;;4391603;32;20073;-64
2021/09/24 10:51:47;;;;;;;0.50;0.50;;;16.20;99.90;;;;;;4400504;32;20078;-63
2021/09/24 10:54:16;;;;;;;0.30;0.30;;;16.10;99.90;;;;;;4390374;32;20464;-63
2021/09/24 10:57:02;;;;;;;0.50;0.50;;;16.00;99.90;;;;;;4390181;32;20058;-64
2021/09/24 10:59:31;;;;;;;0.60;0.60;;;16.00;99.90;;;;;;4403475;32;20061;-65
2021/09/24 11:01:57;;;;;;;0.37;0.37;;;16.00;99.90;;;;;;4380941;32;20549;-63
2021/09/24 11:04:43;;;;;;;3.65;1.25;;;16.00;99.90;;;;;;4394140;32;20381;-65
2021/09/24 11:07:09;;;;;;;0.70;0.70;;;16.00;99.90;;;;;;4393448;32;20075;-64
2021/09/24 11:09:51;;;;;;;10.85;2.47;;;16.00;99.90;;;;;;4392640;32;20085;-63
2021/09/24 11:12:17;;;;;;;0.40;0.40;;;16.10;99.90;;;;;;4406567;32;20070;-64
2021/09/24 11:14:43;;;;;;;1.83;0.47;;;16.10;99.90;;;;;;4409877;32;20085;-64
2021/09/24 11:17:10;;;;;;;0.22;0.22;;;16.30;99.90;;;;;;4408712;32;20073;-64
2021/09/24 11:19:42;;;;;;;1.33;0.90;;;16.50;99.90;;;;;;4411774;32;20069;-64
2021/09/24 11:22:13;;;;;;;0.40;0.40;;;16.60;99.90;;;;;;4408107;32;20073;-64
2021/09/24 11:24:40;;;;;;;;;;;16.60;99.90;;;;;;4409560;32;20074;-63
2021/09/24 11:27:09;;;;;;;0.40;0.40;;;16.70;99.90;;;;;;4406254;32;19960;-64
2021/09/24 11:29:39;;;;;;;0.50;0.50;;;16.80;99.90;;;;;;4405915;32;20157;-64
2021/09/24 11:32:09;;;;;;;0.47;0.47;;;16.80;99.90;;;;;;4407437;32;20323;-64
2021/09/24 11:34:39;;;;;;;1.35;0.73;;;16.70;99.90;;;;;;4407388;32;20185;-64
2021/09/24 11:37:24;;;;;;;0.82;0.82;;;16.70;99.90;;;;;;4405555;32;20078;-64
2021/09/24 11:40:04;;;;;;;0.50;0.50;;;16.70;99.90;;;;;;4409852;32;20081;-63
2021/09/24 11:42:34;;;;;;;0.57;0.57;;;16.80;99.90;;;;;;4407001;32;20074;-64
2021/09/24 11:45:01;;;;;;;0.98;0.70;;;17.00;99.90;;;;;;4393646;32;20074;-64
2021/09/24 11:47:30;;;;;;;0.30;0.30;;;17.30;99.90;;;;;;4414699;32;20070;-64
2021/09/24 11:50:01;;;;;;;0.28;0.28;;;17.40;99.90;;;;;;4413218;32;20065;-64
2021/09/24 11:52:50;;;;;;;0.57;0.57;;;17.50;99.90;;;;;;4408440;32;20069;-64
2021/09/24 11:55:20;;;;;;;0.30;0.30;;;17.50;99.90;;;;;;4403183;32;20118;-64
2021/09/24 11:58:07;;;;;;;0.30;0.30;;;17.40;99.90;;;;;;4420140;32;20077;-64
2021/09/24 12:00:55;;;;;;;0.30;0.30;;;17.30;99.90;;;;;;4393879;32;20109;-64
2021/09/24 12:03:23;;;;;;;0.30;0.30;;;17.30;99.90;;;;;;4402615;32;20065;-64
2021/09/24 12:05:59;;;;;;;2.08;1.15;;;17.40;99.90;;;;;;4423101;32;20081;-64
2021/09/24 12:08:31;;;;;;;0.45;0.45;;;17.30;99.90;;;;;;4417734;32;20474;-64
2021/09/24 12:11:02;;;;;;;0.30;0.30;;;17.20;99.90;;;;;;4407518;32;20100;-64
2021/09/24 12:13:49;;;;;;;0.40;0.40;;;17.10;99.90;;;;;;4415342;32;20144;-64
2021/09/24 12:16:18;;;;;;;0.30;0.30;;;17.10;99.90;;;;;;4392161;32;20077;-64
2021/09/24 12:19:07;;;;;;;0.28;0.28;;;17.10;99.90;;;;;;4398276;32;20074;-64
2021/09/24 12:21:51;;;;;;;0.30;0.30;;;17.00;99.90;;;;;;4399449;32;20217;-64
2021/09/24 12:24:31;;;;;;;0.40;0.40;;;16.90;99.90;;;;;;4415278;32;20134;-64
2021/09/24 12:27:19;;;;;;;0.20;0.20;;;16.80;99.90;;;;;;4407101;32;20078;-64
2021/09/24 12:29:46;;;;;;;0.30;0.30;;;16.80;99.90;;;;;;4394931;32;20045;-64
2021/09/24 12:32:14;;;;;;;0.30;0.30;;;16.70;99.90;;;;;;4411454;32;20082;-63
2021/09/24 12:35:04;;;;;;;0.30;0.30;;;16.70;99.90;;;;;;4411101;32;20212;-63
2021/09/24 12:37:35;;;;;;;0.55;0.55;;;16.70;99.90;;;;;;4408912;32;20095;-64
2021/09/24 12:40:05;;;;;;;1.00;0.60;;;16.80;99.90;;;;;;4417651;32;20078;-64
2021/09/24 12:42:34;;;;;;;5.57;1.95;;;16.90;99.90;;;;;;4398287;32;20061;-64
2021/09/24 12:45:00;;;;;;;0.30;0.30;;;17.00;99.90;;;;;;4399484;32;20365;-64
2021/09/24 12:47:28;;;;;;;0.43;0.43;;;17.00;99.90;;;;;;4396524;32;20074;-64